Date,TemperatureHighF,TemperatureAvgF,TemperatureLowF,DewpointHighF,DewpointAvgF,DewpointLowF,HumidityHigh,HumidityAvg,HumidityLow,PressureMaxIn,PressureMinIn,WindSpeedMaxMPH,WindSpeedAvgMPH,GustSpeedMaxMPH,PrecipitationSumIn
2014-1-1,26.3,22.8,12.4,17.2,11.6,8.1,89,63,47,30.42,30.35,13,1,13,0.00
2014-1-2,19.9,10.4,0.8,17.1,7.5,-2.4,98,88,77,30.35,29.87,17,3,17,0.00
2014-1-3,5.2,-1.0,-9.6,0.3,-5.2,-13.6,87,82,73,30.52,29.85,14,0,14,0.00
2014-1-4,22.4,7.8,-11.5,12.5,-0.5,-15.2,87,70,52,30.55,30.32,18,2,18,0.01
2014-1-5,46.9,27.4,5.6,45.6,21.5,3.1,98,79,51,30.35,29.81,12,1,12,0.16
2014-1-6,57.2,40.4,15.1,55.7,37.6,12.8,98,90,71,29.81,29.35,16,2,17,0.68
2014-1-7,14.9,5.9,1.0,12.8,-4.1,-10.3,92,64,43,30.33,29.65,15,2,15,0.00
2014-1-8,18.4,6.8,-5.2,7.1,-0.3,-8.5,88,73,52,30.55,30.32,6,0,9,0.00
2014-1-9,27.7,13.4,2.3,16.7,8.5,-0.9,92,82,61,30.69,30.51,13,0,13,0.00
2014-1-10,36.0,27.9,9.0,33.9,25.2,6.8,96,90,73,30.62,30.25,9,1,9,0.01
2014-1-11,58.4,49.8,34.0,56.8,48.7,33.0,99,96,91,30.25,29.26,17,2,20,0.74
2014-1-12,49.6,38.6,31.1,48.2,32.2,25.8,96,78,67,30.04,29.35,18,1,18,0.06
2014-1-13,47.9,38.2,24.6,37.0,31.2,23.1,96,77,59,30.13,29.88,13,2,13,0.00
2014-1-14,46.4,43.0,35.0,43.3,39.0,33.7,97,86,69,29.89,29.69,13,1,13,0.50
2014-1-15,48.2,36.9,25.2,40.5,33.9,24.2,98,89,73,30.01,29.84,6,0,9,0.03
2014-1-16,37.3,31.1,29.0,35.5,28.8,26.7,94,91,88,29.99,29.90,7,0,7,0.02
2014-1-17,40.1,29.6,22.0,29.2,25.7,20.8,96,86,61,29.99,29.93,7,0,12,0.01
2014-1-18,34.4,29.3,24.5,32.0,27.0,22.5,95,91,84,29.93,29.68,10,0,10,0.00
2014-1-19,30.0,26.7,22.6,24.0,21.6,19.5,92,81,70,29.82,29.60,10,2,16,0.02
2014-1-20,38.1,30.4,17.9,30.6,23.5,10.3,92,75,68,29.94,29.55,12,2,13,0.02
2014-1-21,17.7,10.8,4.1,10.5,2.2,-4.1,77,68,59,30.10,29.94,10,0,10,0.00
2014-1-22,8.7,1.7,-5.5,-1.6,-5.7,-11.4,78,71,57,30.06,29.87,8,1,15,0.00
2014-1-23,17.1,7.6,-1.4,8.2,0.2,-7.2,84,72,57,30.28,30.05,13,1,13,0.00
2014-1-24,20.7,10.2,-0.7,3.5,0.0,-5.6,81,64,41,30.37,30.03,16,1,16,0.00
2014-1-25,21.0,18.3,13.9,18.6,11.4,2.0,92,75,57,30.03,29.42,16,2,16,0.00
2014-1-26,20.4,15.0,7.8,16.0,6.2,0.2,90,68,50,29.87,29.43,16,2,18,0.01
2014-1-27,35.0,24.6,13.3,26.8,13.5,-2.6,86,64,38,30.09,29.59,13,2,16,0.00
2014-1-28,14.8,9.3,-1.7,0.1,-4.4,-7.7,76,54,41,30.38,30.09,8,1,15,0.00
2014-1-29,23.0,12.2,0.5,1.5,-1.4,-4.7,81,55,32,30.31,30.06,11,1,11,0.01
2014-1-30,27.9,13.5,-4.9,11.2,2.4,-9.0,92,63,41,30.49,30.18,12,1,12,0.00
2014-1-31,33.9,26.7,20.3,22.3,15.4,7.2,84,63,50,30.25,30.08,14,1,14,0.00
2014-2-1,41.8,32.5,19.5,31.7,24.7,17.0,92,74,56,30.37,30.05,11,0,11,0.02
2014-2-2,44.2,37.5,31.9,38.6,34.2,26.8,95,88,73,30.16,29.90,12,0,12,0.08
2014-2-3,31.9,27.1,16.4,27.5,23.4,14.2,100,86,73,30.35,30.14,9,0,9,0.00
2014-2-4,28.4,21.3,7.6,21.2,16.5,5.2,93,82,66,30.52,30.30,8,0,8,0.17
2014-2-5,28.8,25.2,19.1,27.0,22.9,16.8,94,91,78,30.32,29.69,17,0,17,0.00
2014-2-6,24.6,15.1,1.6,16.8,9.7,-1.1,91,80,54,30.35,30.04,8,0,8,0.10
2014-2-7,30.2,11.7,-7.3,15.9,5.1,-10.6,88,76,50,30.34,30.23,10,0,10,0.06
2014-2-8,23.9,12.6,-5.6,11.1,3.7,-8.9,88,69,45,30.37,30.20,8,0,8,0.00
2014-2-9,25.8,19.4,6.9,19.4,12.3,3.1,92,74,57,30.23,29.99,9,0,9,0.02
2014-2-10,25.5,16.7,1.3,19.1,9.7,-3.6,92,75,53,30.29,29.98,18,1,18,0.00
2014-2-11,21.0,8.8,-7.1,8.9,1.8,-10.9,89,74,55,30.54,30.29,12,0,12,0.00
2014-2-12,23.1,10.5,-7.5,12.3,1.4,-11.1,87,68,45,30.62,30.39,8,0,8,0.00
2014-2-13,32.0,26.1,17.3,30.4,24.0,12.5,95,92,81,30.39,29.12,13,1,13,0.00
2014-2-14,35.8,28.1,23.6,27.0,23.9,20.8,95,84,69,29.79,29.05,15,1,15,0.01
2014-2-15,31.8,26.1,16.5,29.2,23.0,14.3,100,88,77,29.84,29.70,16,0,16,0.00
2014-2-16,24.7,21.0,14.4,18.1,13.3,7.7,88,72,58,30.12,29.74,16,1,16,0.00
2014-2-17,25.3,13.1,2.3,8.0,1.0,-4.0,77,60,38,30.43,30.12,13,0,13,0.00
2014-2-18,29.0,21.1,8.3,26.4,15.5,-0.4,93,80,43,30.37,29.98,15,1,15,0.00
2014-2-19,35.2,26.0,9.4,34.4,24.2,6.9,100,93,80,30.13,29.73,5,0,5,0.00
2014-2-20,44.9,34.6,21.6,34.1,28.7,20.1,97,81,47,30.25,30.01,9,0,9,0.42
2014-2-21,39.9,36.5,29.8,39.0,35.1,29.0,97,95,91,30.07,29.67,24,3,24,0.32
2014-2-22,51.7,38.1,25.6,32.9,26.3,22.5,97,67,33,30.00,29.88,20,2,20,0.01
2014-2-23,45.5,36.5,27.2,30.9,27.9,23.7,90,72,54,30.02,29.82,7,0,7,0.00
2014-2-24,35.4,25.8,19.3,26.3,13.6,7.2,73,60,46,30.05,29.83,19,3,19,0.00
2014-2-25,27.4,18.7,9.4,16.0,10.2,5.4,84,69,55,30.07,29.94,13,1,13,0.00
2014-2-26,26.5,14.5,4.3,12.9,3.9,-3.6,89,65,36,29.98,29.86,16,1,16,0.00
2014-2-27,26.6,13.7,2.7,15.6,3.1,-6.0,86,63,45,30.05,29.64,22,2,22,0.00
2014-2-28,20.2,9.9,1.4,1.4,-2.5,-6.5,77,58,35,30.48,30.05,13,1,14,0.00
2014-3-1,31.7,20.1,0.1,17.7,7.9,-5.3,80,60,46,30.48,30.13,11,2,14,0.00
2014-3-2,31.2,27.0,18.7,23.7,17.2,9.8,80,67,57,30.16,30.04,14,1,14,0.00
2014-3-3,18.6,12.6,1.2,9.9,1.3,-4.4,80,61,47,30.39,30.10,12,1,12,0.00
2014-3-4,24.4,13.3,-1.9,10.1,3.2,-7.0,87,65,40,30.46,30.29,6,0,6,0.00
2014-3-5,28.6,21.2,11.9,18.5,11.9,4.3,76,67,58,30.56,30.26,10,0,10,0.00
2014-3-6,29.6,14.3,-0.8,9.0,3.2,-4.0,88,64,34,30.70,30.53,7,1,12,0.00
2014-3-7,38.3,21.8,1.3,25.9,14.5,-4.1,86,75,53,30.53,29.99,8,0,8,0.00
2014-3-8,47.7,36.9,30.6,33.2,29.7,25.5,94,76,51,29.99,29.81,13,0,13,0.00
2014-3-9,36.1,30.1,24.2,28.5,19.6,14.2,83,65,44,30.04,29.92,12,0,14,0.00
2014-3-10,42.3,34.6,24.3,31.6,25.0,15.2,81,68,59,29.92,29.58,7,0,7,0.00
2014-3-11,56.6,42.4,29.2,37.1,31.9,27.2,93,69,40,29.74,29.53,14,0,14,0.00
2014-3-12,45.4,36.6,18.6,39.3,31.9,15.9,95,83,63,29.74,29.09,9,3,14,0.31
2014-3-13,19.6,14.4,9.5,16.3,9.5,3.6,92,81,63,30.09,29.24,22,2,22,0.00
2014-3-14,39.4,22.9,3.5,26.2,12.7,0.8,90,67,46,30.23,29.90,11,2,16,0.06
2014-3-15,49.2,41.3,31.1,35.2,30.3,23.8,82,65,53,30.01,29.73,22,2,22,0.03
2014-3-16,31.1,24.6,16.0,23.8,11.7,0.7,74,58,44,30.27,30.00,19,1,19,0.00
2014-3-17,29.4,20.8,14.3,12.0,7.4,2.2,75,56,41,30.25,30.10,11,0,11,0.00
2014-3-18,42.9,29.3,11.1,18.4,11.3,4.2,83,50,24,30.34,30.19,9,0,9,0.00
2014-3-19,43.2,33.2,21.4,33.9,20.6,9.8,95,63,37,30.36,29.91,16,1,16,0.61
2014-3-20,46.0,37.6,34.7,39.3,31.6,24.8,97,81,56,29.92,29.70,14,1,16,0.07
2014-3-21,41.1,34.0,24.5,26.9,24.0,20.9,92,67,52,30.09,29.85,18,2,18,0.01
2014-3-22,53.2,36.1,23.4,37.9,27.8,20.4,89,73,44,30.10,29.76,18,1,18,0.01
2014-3-23,34.2,29.3,19.0,27.5,19.1,8.8,90,66,49,30.19,29.99,11,1,15,0.00
2014-3-24,30.6,22.0,14.7,12.1,9.3,6.3,80,59,40,30.25,30.12,15,1,15,0.00
2014-3-25,35.5,24.8,10.4,21.9,14.1,7.8,90,66,43,30.19,29.93,15,1,15,0.00
2014-3-26,31.7,26.7,19.5,22.1,14.2,5.0,77,60,42,30.20,29.82,20,2,20,0.00
2014-3-27,39.9,26.8,14.6,20.6,12.5,9.0,82,57,32,30.42,30.19,12,1,12,0.00
2014-3-28,48.4,40.5,33.7,47.6,35.6,20.5,97,83,53,30.24,29.97,11,1,11,0.32
2014-3-29,54.7,43.0,34.0,46.5,40.2,32.7,97,90,64,30.26,29.82,24,2,24,0.72
2014-3-30,42.8,39.3,33.0,41.4,38.0,31.5,100,95,93,29.83,29.64,17,2,30,0.97
2014-3-31,46.7,35.5,30.9,38.0,30.7,27.9,94,83,66,30.12,29.78,21,2,21,0.02
2014-4-1,55.9,41.5,29.2,37.3,31.7,25.8,89,70,45,30.17,30.01,7,1,11,0.00
2014-4-2,60.4,43.9,33.4,42.5,36.0,30.8,93,75,44,30.14,30.03,9,0,9,0.00
2014-4-3,53.2,41.9,28.6,32.0,29.1,26.0,91,63,38,30.18,30.07,11,0,11,0.00
2014-4-4,48.9,42.5,35.9,34.0,31.2,27.8,92,65,49,30.12,29.82,21,2,21,0.15
2014-4-5,48.7,39.9,33.7,41.2,32.6,24.5,96,77,51,30.05,29.74,21,2,21,0.03
2014-4-6,56.8,39.2,30.1,29.3,25.8,21.7,80,61,28,30.23,30.05,10,1,13,0.00
2014-4-7,55.2,43.1,30.7,43.5,28.3,19.1,93,60,29,30.22,29.72,29,2,29,0.03
2014-4-8,64.6,50.4,40.8,54.4,45.1,35.8,98,83,52,29.72,29.33,20,2,30,0.07
2014-4-9,54.8,42.9,30.8,40.5,30.2,19.1,96,64,36,30.04,29.62,20,1,20,0.01
2014-4-10,63.1,45.2,23.9,37.6,28.3,20.5,89,55,33,30.18,29.97,18,2,18,0.00
2014-4-11,66.3,54.6,45.6,52.3,43.5,36.0,97,69,47,30.07,29.92,12,1,12,0.40
2014-4-12,68.2,51.1,38.9,48.3,41.0,34.1,98,74,30,30.24,30.02,12,1,12,0.01
2014-4-13,77.2,59.7,40.6,57.3,48.1,34.9,89,67,47,30.21,29.93,16,2,16,0.02
2014-4-14,75.5,66.8,60.4,61.1,56.5,54.4,85,70,53,29.97,29.79,20,4,20,0.00
2014-4-15,64.1,53.4,28.8,60.4,50.4,27.8,96,90,78,29.92,29.50,23,3,23,1.30
2014-4-16,39.4,31.4,24.3,28.0,23.1,19.3,96,72,48,30.62,29.91,15,1,15,0.13
2014-4-17,51.8,37.9,24.6,28.9,23.3,20.0,87,58,34,30.79,30.63,13,2,13,0.00
2014-4-18,48.8,39.7,28.4,33.5,29.0,23.3,85,66,48,30.65,30.25,8,1,10,0.00
2014-4-19,61.0,45.7,30.5,41.3,33.6,28.3,93,66,39,30.41,30.22,11,1,15,0.00
2014-4-20,62.6,47.2,29.0,32.0,27.3,19.0,91,52,23,30.53,30.33,10,1,11,0.00
2014-4-21,70.6,51.4,30.4,34.8,26.2,14.8,91,47,13,30.33,29.86,14,1,14,0.00
2014-4-22,69.3,58.6,45.2,53.5,46.3,32.6,96,66,40,29.84,29.50,12,1,12,0.05
2014-4-23,52.8,45.2,41.3,51.7,40.4,32.3,96,84,65,29.80,29.52,18,1,18,0.09
2014-4-24,55.9,45.2,34.9,32.6,24.8,19.2,76,47,26,30.04,29.80,23,2,23,0.00
2014-4-25,64.0,52.9,27.4,34.9,27.8,13.8,88,42,16,30.07,29.80,12,1,12,0.01
2014-4-26,60.1,46.9,41.0,48.5,42.7,34.2,100,86,55,29.89,29.72,7,0,10,0.29
2014-4-27,51.9,45.2,36.8,44.7,39.1,33.3,88,79,68,30.16,29.88,14,0,14,0.01
2014-4-28,61.7,49.2,31.8,43.1,38.2,30.3,100,69,43,30.18,30.03,18,1,18,0.00
2014-4-29,49.6,44.8,39.3,41.2,38.3,36.3,92,78,64,30.47,30.17,19,3,19,0.07
2014-4-30,46.6,41.9,38.6,45.2,39.7,36.3,95,92,89,30.48,30.04,17,3,19,0.83
2014-5-1,75.1,57.2,46.6,62.8,52.1,41.6,100,85,48,30.04,29.66,16,1,16,0.28
2014-5-2,63.1,52.8,39.7,47.1,42.7,37.8,96,71,41,29.85,29.70,15,1,15,0.00
2014-5-3,64.4,57.7,45.7,48.2,43.9,40.1,92,62,42,29.88,29.72,12,1,12,0.02
2014-5-4,62.1,51.1,44.5,48.5,41.9,32.7,94,72,33,29.78,29.60,16,2,18,0.08
2014-5-5,62.2,49.7,44.9,46.0,41.5,38.1,92,74,45,29.92,29.77,19,1,19,0.01
2014-5-6,64.1,52.5,42.7,42.3,37.3,31.2,92,59,32,30.11,29.90,19,1,19,0.00
2014-5-7,65.2,50.1,31.8,40.1,35.2,29.5,93,61,32,30.26,30.11,12,0,12,0.00
2014-5-8,65.1,52.9,41.3,56.9,47.8,36.3,95,83,73,30.20,30.09,9,0,9,0.00
2014-5-9,63.0,58.5,53.2,59.6,56.3,51.6,97,92,87,30.20,30.02,8,0,9,0.16
2014-5-10,81.0,65.7,60.3,66.4,60.5,57.5,97,85,48,30.02,29.77,13,1,13,0.07
2014-5-11,76.7,63.7,48.3,57.5,43.2,33.5,88,51,22,30.08,29.85,17,1,17,0.00
2014-5-12,85.8,66.1,44.0,57.2,48.9,41.5,93,59,27,30.13,30.00,9,0,11,0.00
2014-5-13,73.5,62.6,55.0,57.8,49.2,43.5,83,62,46,30.25,30.04,22,1,22,0.00
2014-5-14,74.8,61.7,49.1,59.8,50.7,41.1,91,69,49,30.30,30.19,11,1,11,0.02
2014-5-15,71.5,66.9,60.9,66.7,63.2,58.1,96,88,80,30.25,30.09,10,1,10,0.00
2014-5-16,69.9,67.8,64.5,65.3,64.3,62.4,95,88,84,30.09,29.80,19,2,19,0.46
2014-5-17,66.3,54.6,45.6,64.6,46.9,40.7,97,77,53,30.15,29.75,21,1,21,0.40
2014-5-18,65.2,51.3,36.2,45.1,40.3,34.9,97,69,41,30.22,30.13,16,1,16,0.00
2014-5-19,67.3,50.5,34.5,51.8,42.0,32.9,96,75,40,30.22,30.08,17,1,17,0.04
2014-5-20,74.0,56.6,36.8,51.2,43.8,35.8,100,68,32,30.16,29.98,13,0,13,0.00
2014-5-21,76.0,62.2,42.7,55.0,48.5,40.7,96,65,33,30.01,29.88,9,0,9,0.00
2014-5-22,61.8,57.4,54.8,58.9,55.2,52.2,100,92,85,29.89,29.81,9,0,10,0.49
2014-5-23,65.6,58.3,53.5,58.8,55.3,52.2,98,90,74,29.97,29.86,9,0,9,0.00
2014-5-24,68.6,58.7,52.6,58.7,53.8,51.0,95,84,66,30.09,29.95,4,0,14,0.00
2014-5-25,77.5,62.3,47.3,60.4,52.3,46.4,98,74,36,30.11,30.01,12,0,12,0.00
2014-5-26,84.5,66.0,50.0,66.6,56.5,48.6,98,75,37,30.05,29.86,15,0,15,0.02
2014-5-27,85.8,68.3,51.9,70.1,59.9,50.8,97,78,46,29.90,29.73,12,0,12,0.19
2014-5-28,58.6,52.7,49.1,56.6,49.3,45.4,94,88,80,30.22,29.83,17,1,17,0.00
2014-5-29,70.2,56.5,39.4,52.7,46.6,38.2,100,72,48,30.26,30.11,4,0,8,0.00
2014-5-30,74.0,60.3,50.5,56.9,51.8,46.4,97,75,46,30.15,30.02,15,1,15,0.12
2014-5-31,68.8,58.9,47.9,55.6,52.0,47.1,98,80,55,30.31,30.10,9,0,13,0.01
2014-6-1,76.5,61.8,43.9,55.7,47.9,40.5,97,65,31,30.39,30.22,9,0,9,0.00
2014-6-2,82.5,67.7,49.3,62.5,54.2,42.2,92,64,44,30.25,29.99,9,0,9,0.00
2014-6-3,88.1,70.4,55.8,72.0,64.0,54.7,97,82,51,30.01,29.80,6,0,12,0.52
2014-6-4,76.3,67.1,59.6,64.9,59.5,51.9,98,79,45,29.87,29.76,10,0,10,0.00
2014-6-5,72.1,62.1,57.3,63.7,56.9,50.8,98,84,55,29.81,29.67,10,0,10,0.41
2014-6-6,73.7,62.2,54.3,58.9,54.5,50.5,93,77,56,29.96,29.79,17,0,17,0.00
2014-6-7,79.8,65.4,47.9,62.0,56.3,46.8,98,75,48,30.02,29.92,10,0,10,0.00
2014-6-8,83.3,69.1,51.6,65.1,58.4,50.4,98,72,40,29.99,29.86,12,0,12,0.00
2014-6-9,68.8,63.7,60.7,65.0,60.6,57.9,97,90,77,29.99,29.90,8,0,8,0.06
2014-6-10,79.3,68.9,60.7,68.9,64.3,59.6,97,86,66,30.03,29.95,16,0,16,0.00
2014-6-11,67.0,61.3,59.1,62.6,58.4,54.5,95,90,77,30.16,30.02,14,1,16,0.44
2014-6-12,66.3,61.8,58.0,64.4,59.0,53.6,94,90,80,30.12,29.98,10,0,10,0.00
2014-6-13,72.1,66.8,64.0,70.0,65.1,62.5,97,94,88,29.98,29.75,13,1,13,0.56
2014-6-14,68.8,62.1,53.0,65.6,56.7,50.3,98,83,65,30.03,29.79,14,1,14,0.14
2014-6-15,73.0,61.1,48.7,61.4,55.3,47.6,98,82,62,30.14,30.02,14,0,14,0.00
2014-6-16,82.0,67.2,49.8,63.2,56.5,48.7,98,72,38,30.19,30.02,9,0,9,0.00
2014-6-17,87.0,75.3,59.5,72.4,65.8,57.5,94,73,54,30.06,29.83,11,0,11,0.00
2014-6-18,78.3,70.5,62.8,70.2,65.6,61.3,98,85,67,30.01,29.79,21,0,21,0.43
2014-6-19,80.3,71.2,56.7,67.1,60.7,51.8,98,72,43,30.03,29.96,13,0,13,0.02
2014-6-20,75.0,62.1,47.6,56.4,51.8,46.3,97,72,44,30.03,29.92,11,0,11,0.00
2014-6-21,74.0,61.7,45.4,57.8,51.1,43.6,96,71,45,30.03,29.90,12,0,12,0.00
2014-6-22,78.2,65.0,52.0,58.2,53.2,48.9,92,69,40,30.04,29.95,9,0,9,0.00
2014-6-23,82.0,67.8,50.8,63.9,57.1,49.6,99,72,42,30.14,30.04,11,0,11,0.00
2014-6-24,79.5,70.4,59.8,65.5,59.8,55.4,90,70,55,30.14,29.98,14,0,14,0.00
2014-6-25,83.4,72.6,65.8,73.8,66.9,58.8,97,83,70,30.00,29.82,15,0,15,2.25
2014-6-26,80.5,71.6,64.7,71.3,66.8,62.2,98,86,60,30.01,29.82,7,0,11,0.01
2014-6-27,81.7,70.2,57.9,66.4,61.0,56.9,98,75,46,30.22,30.01,4,0,10,0.00
2014-6-28,83.7,69.7,54.6,68.2,60.9,53.7,98,77,43,30.30,30.22,10,0,10,0.00
2014-6-29,86.2,71.9,56.6,70.2,62.5,55.8,98,75,45,30.27,30.09,8,0,8,0.00
2014-6-30,82.8,72.9,59.3,69.8,64.2,56.7,93,75,62,30.11,29.93,10,0,10,0.00
2014-7-1,88.0,78.1,64.3,76.4,70.6,62.2,96,78,63,29.95,29.78,7,0,11,0.00
2014-7-2,90.5,75.7,68.7,80.1,71.7,67.2,98,88,66,29.94,29.81,24,0,24,1.00
2014-7-3,87.5,73.6,66.6,78.7,71.0,65.8,99,92,70,30.01,29.87,8,0,9,0.67
2014-7-4,67.3,64.5,60.2,66.7,63.3,56.3,98,96,85,30.05,29.94,10,0,10,1.28
2014-7-5,78.5,66.0,52.8,58.9,55.3,50.8,97,72,42,30.13,30.00,16,1,16,0.00
2014-7-6,81.8,67.8,49.7,64.0,57.8,48.6,98,73,49,30.09,29.90,11,0,11,0.00
2014-7-7,84.1,73.7,67.8,73.7,67.4,59.7,95,81,67,29.91,29.70,12,0,12,0.66
2014-7-8,86.5,75.7,65.5,76.2,70.1,64.2,97,83,64,29.82,29.64,10,0,10,0.33
2014-7-9,83.3,72.6,64.1,70.5,66.8,62.9,98,83,59,29.99,29.69,10,0,10,0.11
2014-7-10,78.8,67.8,57.2,63.3,60.2,56.0,98,79,53,30.19,29.99,9,0,9,0.01
2014-7-11,80.3,67.5,54.6,63.3,57.8,53.1,97,74,43,30.25,30.19,10,0,10,0.00
2014-7-12,85.1,71.0,54.1,71.2,62.5,52.8,97,76,48,30.25,30.11,6,0,11,0.00
2014-7-13,80.4,71.8,67.7,73.7,67.5,61.0,97,87,75,30.12,29.87,9,0,9,0.87
2014-7-14,81.0,73.9,69.3,73.6,70.8,67.8,98,90,72,29.93,29.84,8,0,8,0.18
2014-7-15,81.0,73.5,68.5,74.4,70.8,67.3,98,91,77,29.85,29.73,9,0,9,0.90
2014-7-16,78.3,68.5,60.8,68.6,64.3,58.5,98,88,59,29.93,29.75,7,0,7,1.43
2014-7-17,77.0,65.5,53.9,64.5,59.0,52.9,98,81,56,30.14,29.92,13,0,13,0.00
2014-7-18,79.0,65.0,50.3,64.5,57.1,49.3,98,78,45,30.26,30.14,8,0,8,0.00
2014-7-19,76.7,66.1,56.7,66.0,60.0,55.2,96,82,56,30.28,30.21,7,0,7,0.00
2014-7-20,79.0,66.5,58.1,66.9,60.8,56.8,96,83,52,30.22,30.12,8,0,8,0.03
2014-7-21,82.6,68.9,58.0,69.7,62.8,56.0,96,82,58,30.23,30.14,6,0,6,0.00
2014-7-22,85.8,74.0,60.0,74.3,68.0,59.2,98,83,64,30.18,30.00,5,0,7,0.00
2014-7-23,88.0,76.7,68.1,77.2,71.6,67.2,97,85,66,30.01,29.74,15,0,15,1.57
2014-7-24,76.3,68.6,58.8,67.2,62.8,56.3,98,83,60,29.96,29.81,11,0,11,0.19
2014-7-25,78.6,65.6,52.4,65.7,58.8,51.3,98,81,56,30.06,29.96,8,0,12,0.00
2014-7-26,78.9,67.5,56.4,66.4,61.2,55.6,98,82,55,30.01,29.89,9,0,9,0.00
2014-7-27,83.0,71.0,61.7,73.6,67.5,60.0,98,89,69,29.91,29.65,9,0,9,0.58
2014-7-28,78.4,68.8,60.3,72.9,66.4,58.9,98,92,76,29.69,29.46,15,0,15,0.63
2014-7-29,71.8,62.6,53.9,61.0,57.1,52.7,97,84,57,29.99,29.69,11,0,11,0.01
2014-7-30,75.8,62.8,52.0,62.2,56.6,51.0,98,82,50,30.07,29.99,9,0,9,0.00
2014-7-31,78.7,64.9,53.3,66.7,60.1,52.5,98,86,63,30.17,30.06,10,0,10,0.00
2014-8-1,83.2,69.5,58.1,72.2,64.7,57.3,98,86,62,30.23,30.17,11,0,11,0.01
2014-8-2,76.5,68.8,60.6,67.0,63.6,59.2,98,84,61,30.22,30.12,10,0,10,0.00
2014-8-3,80.6,67.7,57.6,68.0,62.5,56.6,98,85,55,30.15,30.03,8,0,8,0.00
2014-8-4,81.6,70.7,62.3,69.9,65.5,61.0,98,85,61,30.08,30.02,9,0,9,0.00
2014-8-5,85.4,70.3,58.2,70.2,64.1,57.3,98,83,53,30.07,29.92,10,0,10,0.87
2014-8-6,78.5,67.2,58.1,67.8,62.5,56.5,99,86,60,29.98,29.85,11,0,11,0.00
2014-8-7,75.3,61.5,52.0,65.2,57.4,51.2,98,87,56,30.04,29.92,12,0,12,0.06
2014-8-8,78.3,63.1,49.6,65.4,57.7,48.7,98,84,54,30.12,30.04,12,0,12,0.01
2014-8-9,81.1,66.2,51.2,65.7,59.1,50.4,100,80,51,30.17,30.09,9,0,10,0.00
2014-8-10,83.5,68.0,54.8,69.1,60.3,53.9,98,79,44,30.18,30.11,8,0,8,0.00
2014-8-11,85.2,70.1,56.1,68.6,61.8,54.8,97,77,50,30.17,30.08,10,0,10,0.00
2014-8-12,77.2,67.9,58.3,66.6,63.0,56.8,97,85,66,30.12,29.92,13,1,13,0.01
2014-8-13,73.0,67.7,60.2,69.2,64.9,59.1,96,91,83,29.92,29.67,16,1,16,0.19
2014-8-14,73.2,62.9,52.4,59.3,54.8,50.7,97,77,48,29.91,29.78,12,0,12,0.01
2014-8-15,65.6,58.4,50.6,57.2,54.3,49.5,98,87,68,29.98,29.89,10,0,10,0.01
2014-8-16,73.3,61.9,49.7,60.3,55.4,48.6,98,81,52,30.02,29.91,12,0,12,0.00
2014-8-17,75.1,64.1,55.5,65.1,59.2,53.7,98,85,62,29.92,29.84,13,0,13,0.13
2014-8-18,73.3,61.0,49.5,60.7,54.9,48.7,98,82,55,29.93,29.86,13,0,13,0.00
2014-8-19,79.5,62.6,46.6,63.2,55.4,45.8,98,80,47,29.97,29.91,10,0,10,0.00
2014-8-20,83.4,69.2,56.0,71.3,63.4,54.6,96,83,62,30.03,29.96,8,0,8,0.00
2014-8-21,77.5,69.0,63.6,68.4,64.9,61.8,98,87,69,30.08,30.00,8,0,8,0.29
2014-8-22,66.6,64.9,63.2,63.4,62.0,59.9,96,90,82,30.11,30.05,9,0,9,0.10
2014-8-23,73.5,65.1,57.3,63.7,60.7,56.2,96,86,65,30.16,30.09,9,0,9,0.01
2014-8-24,78.8,65.8,51.8,68.4,61.1,51.0,99,86,65,30.19,30.13,8,0,9,0.00
2014-8-25,84.7,68.3,53.5,71.5,62.4,52.7,100,84,52,30.22,30.13,6,0,8,0.00
2014-8-26,86.5,70.5,55.7,70.5,63.1,54.9,98,80,51,30.20,30.06,8,0,8,0.00
2014-8-27,87.0,71.0,60.1,75.2,67.0,59.1,98,88,63,30.07,29.89,8,0,8,0.07
2014-8-28,76.2,64.7,53.8,64.4,58.3,51.7,98,81,52,30.09,29.89,12,0,12,0.00
2014-8-29,77.0,61.4,46.9,62.2,55.2,46.1,100,82,56,30.27,30.09,10,0,10,0.00
2014-8-30,77.5,64.6,50.0,65.2,59.0,49.2,99,83,61,30.30,30.13,10,0,10,0.02
2014-8-31,77.2,71.9,68.1,73.2,68.7,64.2,98,90,84,30.14,29.96,11,0,11,0.12
2014-9-1,86.8,74.2,65.6,74.7,69.9,65.0,99,88,62,30.03,29.92,4,0,4,0.00
2014-9-2,89.0,78.8,66.1,76.9,72.1,65.2,99,81,63,29.95,29.76,11,0,19,0.21
2014-9-3,80.5,68.7,56.7,66.9,62.6,55.3,98,83,51,30.15,29.79,10,0,13,0.02
2014-9-4,85.0,68.6,52.0,66.0,60.2,51.2,98,77,48,30.23,30.11,8,0,9,0.00
2014-9-5,86.0,73.0,59.9,74.9,67.9,58.9,98,85,67,30.18,29.99,10,0,10,0.00
2014-9-6,88.3,74.9,62.3,76.2,69.7,59.0,96,85,56,30.00,29.80,13,1,13,0.21
2014-9-7,75.1,64.4,52.8,63.4,57.3,50.9,98,80,46,30.25,29.96,11,0,12,0.01
2014-9-8,75.8,62.5,51.3,59.5,55.0,50.1,97,79,52,30.38,30.25,10,0,10,0.00
2014-9-9,72.8,61.9,52.6,61.0,55.5,50.0,93,80,64,30.35,30.19,9,0,10,0.00
2014-9-10,76.1,64.2,53.5,62.2,56.8,50.8,93,78,56,30.19,30.01,9,0,9,0.00
2014-9-11,75.2,66.2,59.1,70.4,62.6,53.5,93,88,81,30.01,29.80,13,0,13,0.00
2014-9-12,65.4,57.3,47.6,53.5,51.2,46.1,95,80,63,30.26,30.00,12,0,14,0.00
2014-9-13,60.2,53.5,43.4,56.8,51.1,42.3,97,92,79,30.27,30.12,13,0,14,0.18
2014-9-14,62.5,50.9,43.5,48.8,46.0,42.0,97,84,54,30.32,30.21,10,0,10,0.01
2014-9-15,66.2,53.3,41.8,51.4,45.5,40.7,98,78,44,30.29,30.10,11,0,11,0.00
2014-9-16,64.3,55.4,44.7,57.6,51.8,43.6,97,88,71,30.10,30.00,10,0,10,0.10
2014-9-17,68.5,51.9,38.1,54.2,46.3,37.3,98,84,50,30.10,29.99,8,0,10,0.01
2014-9-18,72.0,54.4,38.6,55.6,48.3,37.7,98,82,51,30.18,29.99,8,0,12,0.00
2014-9-19,63.2,50.4,40.0,46.1,42.7,38.7,96,77,47,30.40,30.18,8,0,9,0.00
2014-9-20,72.8,60.4,45.9,61.2,54.5,43.2,93,82,67,30.38,30.09,13,1,13,0.00
2014-9-21,76.3,68.1,61.7,69.1,64.7,59.2,97,89,75,30.09,29.60,12,0,12,0.04
2014-9-22,65.3,57.0,43.6,60.0,49.9,40.7,98,78,51,30.17,29.63,21,1,21,0.01
2014-9-23,69.9,53.4,39.5,53.8,46.6,38.5,97,80,50,30.47,30.17,11,0,11,0.00
2014-9-24,71.4,57.2,47.7,55.8,50.4,46.6,100,81,50,30.62,30.47,8,0,9,0.00
2014-9-25,66.0,58.3,49.4,56.7,53.3,47.9,96,84,65,30.54,30.28,7,0,7,0.00
2014-9-26,76.1,60.2,45.5,61.4,53.8,44.4,98,82,57,30.28,30.19,8,0,10,0.00
2014-9-27,81.4,62.3,46.3,62.6,55.5,45.4,98,81,51,30.27,30.18,8,0,8,0.00
2014-9-28,84.8,64.8,49.0,65.9,58.4,48.2,98,82,50,30.21,30.03,4,0,6,0.00
2014-9-29,76.8,63.3,52.1,63.3,58.0,51.3,98,85,50,30.03,29.92,6,0,6,0.00
2014-9-30,70.2,62.8,58.4,61.8,58.8,55.5,93,87,73,30.03,29.95,13,1,13,0.00
2014-10-1,62.3,59.3,57.8,59.8,57.6,55.5,98,94,90,30.13,30.02,4,0,4,0.12
2014-10-2,67.8,60.0,56.1,60.1,56.9,54.4,97,90,72,30.20,30.11,6,0,6,0.02
2014-10-3,72.2,56.5,47.3,54.6,50.1,45.6,95,81,45,30.15,29.86,9,0,10,0.00
2014-10-4,58.7,55.8,48.6,57.8,53.8,47.5,97,93,85,29.87,29.52,15,1,18,0.41
2014-10-5,60.2,47.4,37.0,47.5,39.4,34.1,97,77,41,30.00,29.67,10,0,10,0.00
2014-10-6,68.3,50.8,32.1,52.9,43.1,31.2,98,78,49,30.10,30.00,9,1,14,0.01
2014-10-7,72.0,63.5,57.9,58.9,55.3,49.1,92,76,49,30.08,29.89,13,1,13,0.01
2014-10-8,72.2,62.2,53.9,59.0,52.1,38.3,95,72,41,29.94,29.71,15,1,15,0.20
2014-10-9,65.8,52.8,41.5,45.5,40.9,37.6,91,66,39,30.05,29.90,14,0,14,0.00
2014-10-10,63.1,48.6,34.9,45.4,40.1,33.6,97,75,45,30.17,30.05,4,0,12,0.00
2014-10-11,59.6,49.1,42.6,48.1,44.6,40.9,95,85,61,30.21,30.08,6,0,6,0.07
2014-10-12,62.7,45.4,32.2,45.5,38.4,31.1,97,79,44,30.34,30.21,9,0,9,0.00
2014-10-13,60.2,49.1,32.1,55.9,45.3,31.0,98,87,71,30.36,30.26,7,0,7,0.00
2014-10-14,75.5,66.7,58.2,66.5,62.0,55.8,97,86,65,30.26,30.11,14,1,14,0.01
2014-10-15,78.7,71.3,66.8,69.7,66.3,63.0,96,85,69,30.11,29.86,12,1,12,0.62
2014-10-16,70.4,65.8,55.8,67.8,63.2,54.4,98,92,76,29.87,29.65,16,0,16,0.55
2014-10-17,71.1,59.6,51.8,57.8,53.5,51.0,100,82,52,29.72,29.64,12,0,12,0.00
2014-10-18,62.5,55.6,50.6,57.8,52.2,46.4,96,88,77,29.71,29.55,12,0,12,0.13
2014-10-19,51.1,44.5,38.4,46.3,35.4,27.8,85,71,55,30.07,29.70,19,1,19,0.00
2014-10-20,52.4,42.5,30.0,43.2,35.9,28.2,96,79,58,30.12,29.99,12,0,12,0.00
2014-10-21,52.9,49.6,45.5,51.8,48.0,42.4,98,94,80,30.00,29.92,9,0,9,0.14
2014-10-22,53.5,51.1,47.8,51.2,48.9,46.8,97,92,83,30.06,29.85,13,0,13,0.58
2014-10-23,48.3,45.3,43.8,47.5,44.3,43.0,97,96,94,29.91,29.78,13,0,13,1.27
2014-10-24,50.1,47.0,44.9,47.4,45.4,44.1,100,94,89,29.88,29.81,6,0,9,0.18
2014-10-25,63.6,49.7,34.5,49.7,43.4,33.6,98,81,56,29.89,29.57,12,0,12,0.00
2014-10-26,53.5,47.1,43.3,49.0,44.0,41.9,97,89,80,29.82,29.53,14,1,14,0.22
2014-10-27,60.1,48.7,37.4,45.1,42.1,35.8,95,79,50,30.06,29.82,12,0,12,0.00
2014-10-28,70.6,54.4,36.8,53.8,46.2,35.3,97,76,53,30.07,29.91,12,0,12,0.00
2014-10-29,62.7,53.2,38.4,58.8,50.7,37.3,97,91,80,29.95,29.85,7,0,7,0.16
2014-10-30,52.9,43.1,33.9,46.9,38.7,33.1,98,85,62,30.07,29.95,13,0,13,0.01
2014-10-31,51.2,41.4,28.8,41.6,36.4,27.8,97,83,64,30.08,29.96,14,1,14,0.01
2014-11-1,45.4,42.2,37.7,40.7,37.1,34.7,93,83,73,29.99,29.88,12,0,12,0.01
2014-11-2,46.2,38.7,35.4,35.6,27.1,19.5,92,64,44,30.04,29.86,22,2,22,0.00
2014-11-3,57.1,41.2,31.7,35.6,30.7,20.3,93,68,38,30.15,30.01,15,1,15,0.00
2014-11-4,65.3,51.7,33.1,39.4,34.9,28.6,93,58,29,30.17,30.01,11,0,11,0.00
2014-11-5,59.9,51.8,36.3,46.3,37.5,32.4,89,60,40,30.16,29.97,9,0,9,0.00
2014-11-6,47.7,43.4,37.6,43.8,40.4,34.3,97,89,75,30.15,29.59,7,0,7,0.16
2014-11-7,45.0,40.1,33.7,42.5,35.8,27.6,97,85,70,29.92,29.60,13,1,18,0.02
2014-11-8,46.7,39.5,33.2,32.0,28.1,25.0,77,64,47,30.04,29.89,12,1,12,0.00
2014-11-9,54.2,43.2,29.1,38.3,33.9,27.6,96,71,51,30.05,29.89,10,0,10,0.00
2014-11-10,57.3,41.0,28.9,39.2,33.6,27.4,97,78,43,30.20,30.05,8,0,8,0.00
2014-11-11,60.4,51.8,37.7,53.8,47.7,35.1,97,86,75,30.18,29.94,9,0,9,0.00
2014-11-12,60.9,48.2,36.2,56.1,44.3,28.4,97,87,73,30.14,29.88,12,1,12,0.02
2014-11-13,43.1,36.6,27.1,32.4,29.0,24.7,95,75,57,30.15,30.02,7,0,10,0.00
2014-11-14,39.6,32.5,27.9,32.5,28.1,23.0,95,84,62,30.19,29.99,10,0,12,0.19
2014-11-15,38.2,28.6,20.0,24.1,21.0,17.6,92,75,50,30.40,30.19,17,1,17,0.00
2014-11-16,38.6,30.8,18.9,29.2,23.9,17.0,93,77,56,30.41,30.13,15,1,15,0.00
2014-11-17,45.9,39.1,33.9,45.4,37.5,28.5,98,94,71,30.13,29.49,8,0,8,0.90
2014-11-18,39.1,28.1,19.5,37.5,17.2,7.3,94,64,42,30.02,29.57,13,1,24,0.00
2014-11-19,32.0,23.7,16.1,15.2,10.7,8.0,74,58,40,30.24,30.02,12,1,12,0.00
2014-11-20,41.1,30.9,20.1,24.2,19.3,14.8,89,63,41,30.06,29.82,16,2,16,0.00
2014-11-21,32.2,22.4,13.1,19.7,14.1,10.3,91,71,48,30.50,29.99,18,1,18,0.00
2014-11-22,39.7,28.0,11.5,26.4,15.2,9.0,93,63,34,30.50,30.14,17,2,18,0.01
2014-11-23,56.7,44.7,35.3,34.9,30.3,24.6,86,58,40,30.20,30.03,10,1,10,0.01
2014-11-24,65.4,59.2,43.3,60.7,54.7,33.1,96,85,67,30.03,29.52,23,2,23,0.30
2014-11-25,61.6,49.5,32.3,56.3,38.0,29.2,90,67,43,30.17,29.71,12,1,12,0.00
2014-11-26,39.0,34.4,29.6,33.2,31.4,28.1,97,89,74,30.24,29.87,9,0,9,0.00
2014-11-27,32.7,29.4,27.2,29.7,27.5,25.7,94,92,87,30.09,29.88,6,0,6,0.00
2014-11-28,31.0,24.4,14.6,26.1,21.6,12.7,95,89,79,30.30,30.06,9,0,9,0.03
2014-11-29,32.0,20.7,6.1,26.5,16.3,3.8,100,83,74,30.40,30.24,9,0,9,0.01
2014-11-30,44.1,39.7,32.1,37.7,34.2,26.7,87,80,72,30.24,30.06,11,1,12,0.89
2014-12-1,49.7,42.1,33.4,43.6,36.0,25.0,89,79,69,30.51,30.04,23,1,23,0.01
2014-12-2,36.2,31.5,24.3,32.0,24.2,18.0,92,75,62,30.70,30.35,17,2,17,0.05
2014-12-3,40.8,37.5,33.7,39.8,35.9,27.8,97,94,79,30.35,29.95,14,1,14,0.08
2014-12-4,38.4,30.9,23.1,28.2,24.1,20.5,92,76,59,30.58,30.19,12,0,12,0.00
2014-12-5,37.1,30.9,21.1,35.0,25.3,19.1,94,81,62,30.67,30.40,13,1,14,0.26
2014-12-6,41.1,37.2,34.1,40.5,36.3,33.2,98,97,94,30.40,30.17,8,0,8,0.73
2014-12-7,34.7,28.4,16.6,33.2,17.6,1.7,94,65,37,30.72,30.32,22,1,22,0.01
2014-12-8,30.6,22.0,13.0,27.6,14.8,1.9,89,74,49,30.78,30.46,13,0,13,0.00
2014-12-9,37.9,34.3,30.5,37.1,32.9,27.6,97,95,89,30.46,29.71,0,0,0,1.54
2014-12-10,33.9,32.6,28.1,33.8,31.4,26.9,100,95,94,29.72,29.56,4,0,4,0.02
2014-12-11,32.3,29.0,27.4,29.5,27.0,24.5,95,92,88,29.88,29.57,7,0,7,0.01
2014-12-12,35.0,28.5,26.7,34.2,26.2,24.4,97,91,87,30.02,29.87,5,0,8,0.00
2014-12-13,34.9,31.2,27.9,31.8,28.4,25.8,93,89,80,30.01,29.90,7,0,9,0.00
2014-12-14,37.3,35.8,33.9,33.8,33.0,31.0,94,90,85,30.01,29.90,12,0,12,0.00
2014-12-15,35.2,33.2,29.4,31.0,30.0,27.6,94,88,84,30.17,30.01,8,0,13,0.00
2014-12-16,41.2,34.9,27.2,39.7,33.5,26.0,97,95,92,30.15,29.90,7,0,9,0.22
2014-12-17,42.2,39.1,34.2,41.3,38.1,33.2,98,96,91,29.90,29.80,13,0,13,0.19
2014-12-18,36.3,33.8,32.0,33.3,30.5,28.4,96,87,81,29.98,29.85,13,1,13,0.09
2014-12-19,32.6,29.4,26.3,29.1,24.5,22.1,88,82,76,30.23,29.97,15,0,15,0.00
2014-12-20,27.6,25.7,19.8,25.3,21.3,17.2,92,83,77,30.34,30.23,6,0,8,0.00
2014-12-21,31.0,28.6,26.4,28.6,26.5,23.8,99,92,86,30.40,30.31,7,0,7,0.02
2014-12-22,39.3,35.2,30.0,36.9,33.0,28.4,96,92,86,30.38,30.23,17,1,17,0.02
2014-12-23,42.6,40.6,38.3,41.0,39.1,36.5,96,94,91,30.26,30.12,12,1,12,0.28
2014-12-24,57.9,46.8,42.1,57.1,45.5,40.7,99,95,92,30.13,29.52,16,2,16,0.23
2014-12-25,60.1,49.6,40.0,59.2,42.2,31.6,97,77,56,30.08,29.46,23,2,23,0.05
2014-12-26,45.9,38.2,26.4,33.7,31.1,25.1,95,76,59,30.26,30.08,11,0,11,0.00
2014-12-27,49.8,35.7,25.3,38.5,31.5,24.2,96,86,64,30.29,30.02,11,0,11,0.00
2014-12-28,47.3,41.1,33.7,42.1,36.4,27.3,96,84,65,30.08,29.86,8,0,8,0.27
2014-12-29,35.2,31.4,24.0,27.7,24.4,15.0,87,75,66,30.30,30.08,9,0,9,0.00
2014-12-30,27.1,20.6,14.3,15.6,11.8,7.7,86,69,52,30.44,30.29,15,1,15,0.00
2014-12-31,28.6,19.8,10.9,16.0,9.6,3.3,92,66,41,30.37,30.14,16,1,16,0.00
2015-1-1,30.4,24.5,12.5,18.3,12.1,6.2,88,59,45,30.14,29.94,17,2,17,0.00
2015-1-2,38.1,29.4,21.5,26.6,20.8,16.1,86,71,50,30.50,29.98,17,1,17,0.00